M I D A S
Marine Information and Data Acquisition System
Tripno 974 of the Zeeleeuw from 2005-10-19 06:32:24 to 2005-10-19 13:12:36
Back to CruiseResearch ActivitiesStationsMapUnderway DataData graphs

EquipmentUnitsComment
TimeDGPSUTC
LatitudeDGPSDM.mWGS84
LongitudeDGPSDM.mWGS84
TemperatureSBE03/SBE38deg celciusITS90
ConductivitySBE21S/mITS90
SalinitySBE21 Practical Salinity Units
ChlorophylAChelsea fluorimeterg/lCalibrated in Aceton
Missing or incorrect values are displayed as -999
Sea surface data collected by the RV Zeeleeuw from 2005-10-19 06:33:04 to 2005-10-19 13:22:30
Time Latitude Longitude Temperature Conductivity Salinity ChlorophylA
2005-10-19 06:34:10 51°13.621 2°56.033 -999 0.07033 0.375293 -1.118343
2005-10-19 06:35:10 51°13.649 2°55.93 -999 0.07033 0.375313 -1.118343
2005-10-19 06:36:10 51°13.683 2°55.809 -999 0.07033 0.375332 -1.084634
2005-10-19 06:37:10 51°13.695 2°55.735 -999 0.07033 0.375332 -1.118343
2005-10-19 06:38:10 51°13.735 2°55.734 -999 0.07033 0.375351 -1.118343
2005-10-19 06:39:10 51°13.836 2°55.631 -999 0.07033 0.375351 -1.118343
2005-10-19 06:40:10 51°13.984 2°55.524 -999 0.07033 0.375357 -1.084634
2005-10-19 06:41:10 51°14.142 2°55.404 -999 0.07033 0.375345 -1.118343
2005-10-19 06:42:10 51°14.285 2°55.214 -999 0.070432 0.375905 -1.084634
2005-10-19 06:43:10 51°14.42 2°54.986 -999 0.070432 0.375886 -1.118343
2005-10-19 06:44:10 51°14.571 2°54.741 -999 0.070432 0.375873 -1.118343
2005-10-19 06:45:10 51°14.727 2°54.494 -999 0.070432 0.375866 -1.084634
2005-10-19 06:46:10 51°14.871 2°54.229 -999 0.070432 0.375847 -1.084634
2005-10-19 06:47:08 51°15.001 2°53.97 -999 0.070432 0.375815 -1.084634
2005-10-19 06:48:10 51°15.165 2°53.738 -999 0.070432 0.375802 -1.084634
2005-10-19 06:49:10 51°15.313 2°53.475 -999 0.070432 0.375783 -1.084634
2005-10-19 06:50:10 51°15.443 2°53.179 -999 0.070432 0.375757 -1.084634
2005-10-19 06:51:10 51°15.567 2°52.876 -999 0.070535 0.376311 -1.084634
2005-10-19 06:52:10 51°15.681 2°52.557 -999 0.070535 0.376304 -1.084634
2005-10-19 06:53:10 51°15.79 2°52.235 -999 0.070535 0.376272 -1.084634
2005-10-19 06:54:10 51°15.892 2°51.907 -999 0.070535 0.376253 -1.084634
2005-10-19 06:55:10 51°15.992 2°51.577 -999 0.070535 0.37624 -1.084634
2005-10-19 06:56:10 51°16.094 2°51.247 -999 0.070535 0.376234 -1.084634
2005-10-19 06:57:10 51°16.195 2°50.922 -999 0.070535 0.376234 -1.084634
2005-10-19 06:58:10 51°16.295 2°50.604 -999 0.070535 0.37624 -1.084634
2005-10-19 06:59:10 51°16.401 2°50.295 -999 0.070535 0.37624 -1.084634
2005-10-19 07:00:10 51°16.509 2°49.972 -999 0.070535 0.376247 -1.084634
2005-10-19 07:01:10 51°16.642 2°49.69 -999 0.070535 0.376247 -1.084634
2005-10-19 07:02:10 51°16.841 2°49.625 -999 0.070535 0.376227 -1.084634
2005-10-19 07:03:10 51°17.035 2°49.668 -999 0.070535 0.376253 -1.084634
2005-10-19 07:04:10 51°17.222 2°49.788 -999 0.070535 0.376227 -1.084634
2005-10-19 07:05:10 51°17.404 2°49.929 -999 0.070535 0.376202 -1.084634
2005-10-19 07:06:10 51°17.574 2°50.101 -999 0.070535 0.376202 -1.084634
2005-10-19 07:07:08 51°17.738 2°50.261 -999 0.070535 0.376189 -1.084634
2005-10-19 07:08:10 51°17.914 2°50.43 -999 0.070535 0.376176 -1.084634
2005-10-19 07:09:10 51°18.085 2°50.592 -999 0.070535 0.376176 -1.084634
2005-10-19 07:10:10 51°18.256 2°50.754 -999 0.070535 0.376176 -1.084634
2005-10-19 07:11:10 51°18.426 2°50.914 -999 0.070535 0.376189 -1.084634
2005-10-19 07:12:10 51°18.598 2°51.074 -999 0.070535 0.376195 -1.084634
2005-10-19 07:13:10 51°18.768 2°51.231 -999 0.070535 0.376202 -1.084634
2005-10-19 07:14:10 51°18.94 2°51.386 -999 0.070535 0.376214 -1.084634
2005-10-19 07:15:10 51°19.11 2°51.542 -999 0.070535 0.376221 -1.084634
2005-10-19 07:16:10 51°19.28 2°51.697 -999 0.070535 0.376234 -1.084634
2005-10-19 07:17:10 51°19.448 2°51.858 -999 0.070535 0.37624 -1.084634
2005-10-19 07:18:10 51°19.613 2°52.029 -999 0.070535 0.376234 -1.084634
2005-10-19 07:19:10 51°19.779 2°52.198 -999 0.070535 0.37624 -1.084634
2005-10-19 07:20:10 51°19.943 2°52.367 -999 0.070535 0.376247 -1.084634
2005-10-19 07:21:10 51°20.108 2°52.533 -999 0.070638 0.376807 -1.084634
2005-10-19 07:22:10 51°20.274 2°52.693 -999 0.070638 0.376813 -1.084634
2005-10-19 07:23:10 51°20.442 2°52.845 -999 0.070638 0.376813 -1.084634
2005-10-19 07:24:10 51°20.621 2°52.966 -999 0.070535 0.376247 -1.084634
2005-10-19 07:25:10 51°20.809 2°53.063 -999 0.070638 0.376813 -1.084634
2005-10-19 07:26:10 51°20.997 2°53.157 -999 0.070638 0.376807 -1.084634
2005-10-19 07:27:10 51°21.188 2°53.243 -999 0.070638 0.376794 -1.084634
2005-10-19 07:28:10 51°21.38 2°53.33 -999 0.070638 0.376781 -1.084634
2005-10-19 07:29:10 51°21.573 2°53.409 -999 0.070638 0.376781 -1.084634
2005-10-19 07:30:10 51°21.766 2°53.483 -999 0.070638 0.376762 -1.084634
2005-10-19 07:31:10 51°21.96 2°53.564 -999 0.070638 0.376755 -1.084634
2005-10-19 07:32:10 51°22.156 2°53.643 -999 0.070638 0.376742 -1.084634
2005-10-19 07:33:10 51°22.355 2°53.704 -999 0.070638 0.376736 -1.084634
2005-10-19 07:34:10 51°22.554 2°53.757 -999 0.070638 0.376723 -1.084634
2005-10-19 07:35:10 51°22.752 2°53.815 -999 0.070638 0.376704 -1.084634
2005-10-19 07:36:10 51°22.95 2°53.872 -999 0.070638 0.376704 -1.084634
2005-10-19 07:37:10 51°23.147 2°53.919 -999 0.070638 0.376678 -1.084634
2005-10-19 07:38:10 51°23.346 2°53.967 -999 0.070638 0.376659 -1.084634
2005-10-19 07:39:10 51°23.542 2°54.015 -999 0.070638 0.376646 -1.084634
2005-10-19 07:40:10 51°23.738 2°54.062 -999 0.070638 0.376633 -1.084634
2005-10-19 07:41:10 51°23.933 2°54.11 -999 0.070638 0.37662 -1.084634
2005-10-19 07:42:10 51°24.128 2°54.156 -999 0.070638 0.376588 -1.084634
2005-10-19 07:43:10 51°24.325 2°54.201 -999 0.070638 0.376575 -1.084634
2005-10-19 07:44:10 51°24.52 2°54.252 -999 0.070741 0.377122 -1.084634
2005-10-19 07:45:10 51°24.712 2°54.307 -999 0.070741 0.377115 -1.084634
2005-10-19 07:46:10 51°24.906 2°54.358 -999 0.070741 0.377096 -1.084634
2005-10-19 07:47:10 51°25.102 2°54.408 -999 0.070741 0.377077 -1.084634
2005-10-19 07:48:10 51°25.3 2°54.46 -999 0.070741 0.37707 -1.084634
2005-10-19 07:49:10 51°25.494 2°54.511 -999 0.070741 0.377044 -1.118343
2005-10-19 07:50:10 51°25.689 2°54.565 -999 0.070741 0.377038 -1.084634
2005-10-19 07:51:10 51°25.885 2°54.608 -999 0.070741 0.377012 -1.084634
2005-10-19 07:52:10 51°26.08 2°54.655 -999 0.070741 0.376999 -1.118343
2005-10-19 07:53:10 51°26.274 2°54.714 -999 0.070741 0.37698 -1.084634
2005-10-19 07:54:10 51°26.464 2°54.776 -999 0.070741 0.376967 -1.118343
2005-10-19 07:55:10 51°26.655 2°54.831 -999 0.070741 0.376961 -1.118343
2005-10-19 07:56:10 51°26.848 2°54.881 -999 0.070741 0.376941 -1.118343
2005-10-19 07:57:10 51°27.042 2°54.926 -999 0.070741 0.376929 -1.084634
2005-10-19 07:58:10 51°27.235 2°54.969 -999 0.070741 0.376916 -1.118343
2005-10-19 07:59:10 51°27.429 2°55.014 -999 0.070741 0.37689 -1.118343
2005-10-19 08:00:10 51°27.624 2°55.059 -999 0.070741 0.376877 -1.118343
2005-10-19 08:01:10 51°27.816 2°55.106 -999 0.070844 0.37743 -1.118343
2005-10-19 08:02:10 51°28.009 2°55.151 -999 0.070844 0.377417 -1.118343
2005-10-19 08:03:10 51°28.201 2°55.195 -999 0.070844 0.377404 -1.118343
2005-10-19 08:04:10 51°28.392 2°55.248 -999 0.070844 0.377385 -1.118343
2005-10-19 08:05:10 51°28.584 2°55.299 -999 0.070844 0.377379 -1.118343
2005-10-19 08:06:10 51°28.776 2°55.347 -999 0.070844 0.377353 -1.118343
2005-10-19 08:07:10 51°28.969 2°55.401 -999 0.070844 0.377346 -1.118343
2005-10-19 08:08:10 51°29.163 2°55.451 -999 0.070844 0.377327 -1.118343
2005-10-19 08:09:10 51°29.361 2°55.499 -999 0.070844 0.377314 -1.118343
2005-10-19 08:10:10 51°29.559 2°55.554 -999 0.070844 0.377308 -1.118343
2005-10-19 08:11:10 51°29.758 2°55.606 -999 0.070844 0.377288 -1.084634
2005-10-19 08:12:10 51°29.959 2°55.664 -999 0.070844 0.377269 -1.084634
2005-10-19 08:13:10 51°30.158 2°55.725 -999 0.070844 0.37725 -1.118343
2005-10-19 08:14:08 51°30.35 2°55.776 -999 0.070844 0.377243 -1.118343
2005-10-19 08:15:10 51°30.553 2°55.821 -999 0.070844 0.37723 -1.118343
2005-10-19 08:16:10 51°30.747 2°55.864 -999 0.070844 0.377211 -1.118343
2005-10-19 08:17:10 51°30.938 2°55.909 -999 0.070947 0.37777 -1.118343
2005-10-19 08:18:10 51°31.131 2°55.949 -999 0.070947 0.377751 -1.118343
2005-10-19 08:19:10 51°31.322 2°56.007 -999 0.070947 0.377738 -1.118343
2005-10-19 08:20:10 51°31.508 2°56.06 -999 0.070947 0.377732 -1.118343
2005-10-19 08:21:10 51°31.692 2°56.12 -999 0.070947 0.377706 -1.118343
2005-10-19 08:22:10 51°31.876 2°56.176 -999 0.070947 0.37768 -1.118343
2005-10-19 08:23:10 51°32.061 2°56.232 -999 0.070947 0.377661 -1.118343
2005-10-19 08:24:10 51°32.247 2°56.286 -999 0.070947 0.377641 -1.118343
2005-10-19 08:25:10 51°32.435 2°56.34 -999 0.070947 0.377622 -1.118343
2005-10-19 08:26:10 51°32.626 2°56.373 -999 0.070947 0.377603 -1.118343
2005-10-19 08:27:10 51°32.817 2°56.41 -999 0.070947 0.377584 -1.118343
2005-10-19 08:28:10 51°33.011 2°56.439 -999 0.070947 0.377571 -1.118343
2005-10-19 08:29:10 51°33.205 2°56.463 -999 0.070947 0.377551 -1.118343
2005-10-19 08:30:10 51°33.402 2°56.483 -999 0.070947 0.377526 -1.118343
2005-10-19 08:31:10 51°33.602 2°56.492 -999 0.070947 0.377513 -1.118343
2005-10-19 08:32:10 51°33.796 2°56.504 -999 0.070947 0.377506 -1.118343
2005-10-19 08:33:10 51°33.992 2°56.48 -999 0.070947 0.377481 -1.118343
2005-10-19 08:34:10 51°34.184 2°56.448 -999 0.070947 0.377461 -1.118343
2005-10-19 08:35:10 51°34.376 2°56.418 -999 0.070947 0.377455 -1.118343
2005-10-19 08:36:10 51°34.547 2°56.295 -999 0.070947 0.377468 -1.118343
2005-10-19 08:37:10 51°34.618 2°55.967 -999 0.070947 0.377448 -1.118343
2005-10-19 08:38:10 51°34.602 2°55.595 -999 0.07105 0.377994 -1.118343
2005-10-19 08:39:10 51°34.548 2°55.221 -999 0.07105 0.378007 -1.118343
2005-10-19 08:40:10 51°34.452 2°54.864 -999 0.07105 0.378026 -1.118343
2005-10-19 08:41:10 51°34.348 2°54.51 -999 0.07105 0.378033 -1.118343
2005-10-19 08:42:10 51°34.245 2°54.156 -999 0.07105 0.378065 -1.118343
2005-10-19 08:43:10 51°34.139 2°53.805 -999 0.07105 0.378097 -1.118343
2005-10-19 08:44:10 51°34.033 2°53.456 -999 0.07105 0.378123 -1.118343
2005-10-19 08:45:10 51°33.925 2°53.105 -999 0.070947 0.377596 -1.118343
2005-10-19 08:46:10 51°33.818 2°52.754 -999 0.070947 0.377629 -1.118343
2005-10-19 08:47:10 51°33.713 2°52.4 -999 0.070947 0.377648 -1.118343
2005-10-19 08:48:10 51°33.606 2°52.049 -999 0.070947 0.37768 -1.084634
2005-10-19 08:49:10 51°33.498 2°51.698 -999 0.070947 0.377699 -1.084634
2005-10-19 08:50:10 51°33.391 2°51.344 -999 0.070947 0.377725 -1.084634
2005-10-19 08:51:10 51°33.283 2°50.994 -999 0.070947 0.377751 -1.084634
2005-10-19 08:52:10 51°33.177 2°50.639 -999 0.070947 0.37779 -1.084634
2005-10-19 08:53:10 51°33.069 2°50.284 -999 0.070947 0.37779 -1.084634
2005-10-19 08:54:10 51°32.96 2°49.928 -999 0.070947 0.377815 -1.084634
2005-10-19 08:55:10 51°32.852 2°49.569 -999 0.070947 0.377822 -1.084634
2005-10-19 08:56:10 51°32.743 2°49.213 -999 0.070947 0.377867 -1.084634
2005-10-19 08:57:10 51°32.634 2°48.862 -999 0.070947 0.377893 -1.084634
2005-10-19 08:58:10 51°32.526 2°48.509 -999 0.070947 0.377912 -1.084634
2005-10-19 08:59:10 51°32.417 2°48.155 -999 0.070947 0.377944 -1.084634
2005-10-19 09:00:10 51°32.311 2°47.801 -999 0.070947 0.377957 -1.084634
2005-10-19 09:01:10 51°32.209 2°47.441 -999 0.070947 0.377989 -1.084634
2005-10-19 09:02:10 51°32.106 2°47.081 -999 0.070947 0.378028 -1.084634
2005-10-19 09:03:10 51°32.004 2°46.718 -999 0.070947 0.378054 -1.084634
2005-10-19 09:04:10 51°31.905 2°46.359 -999 0.070947 0.378093 -1.084634
2005-10-19 09:05:10 51°31.804 2°46.001 -999 0.070947 0.378144 -1.084634
2005-10-19 09:06:10 51°31.704 2°45.644 -999 0.070947 0.378183 -1.084634
2005-10-19 09:07:10 51°31.604 2°45.288 -999 0.070947 0.378222 -1.084634
2005-10-19 09:08:08 51°31.508 2°44.942 -999 0.070947 0.378267 -1.084634
2005-10-19 09:09:10 51°31.404 2°44.574 -999 0.070844 0.377727 -1.050924
2005-10-19 09:10:10 51°31.304 2°44.218 -999 0.070844 0.377772 -1.050924
2005-10-19 09:11:10 51°31.204 2°43.862 -999 0.070844 0.377811 -1.050924
2005-10-19 09:12:10 51°31.106 2°43.505 -999 0.070844 0.377843 -1.084634
2005-10-19 09:13:10 51°31.007 2°43.148 -999 0.070844 0.377895 -1.084634
2005-10-19 09:14:10 51°30.901 2°42.792 -999 0.070844 0.37794 -1.084634
2005-10-19 09:15:10 51°30.791 2°42.443 -999 0.070844 0.377985 -1.050924
2005-10-19 09:16:10 51°30.682 2°42.095 -999 0.070844 0.378037 -1.084634
2005-10-19 09:17:10 51°30.573 2°41.748 -999 0.070741 0.377509 -1.050924
2005-10-19 09:18:10 51°30.468 2°41.403 -999 0.070741 0.377567 -1.050924
2005-10-19 09:19:10 51°30.364 2°41.058 -999 0.070741 0.377619 -1.050924
2005-10-19 09:20:10 51°30.255 2°40.714 -999 0.070741 0.37767 -1.050924
2005-10-19 09:21:10 51°30.147 2°40.371 -999 0.070741 0.377722 -1.050924
2005-10-19 09:22:10 51°30.04 2°40.026 -999 0.070741 0.37778 -1.050924
2005-10-19 09:23:10 51°29.917 2°39.704 -999 0.070741 0.377884 -1.050924
2005-10-19 09:24:10 51°29.699 2°39.639 -999 0.070638 0.377297 -1.050924
2005-10-19 09:25:10 51°29.48 2°39.735 -999 0.070638 0.377342 -1.050924
2005-10-19 09:26:10 51°29.27 2°39.864 -999 0.070638 0.377394 -1.050924
2005-10-19 09:27:10 51°29.064 2°39.999 -999 0.070638 0.377478 -1.050924
2005-10-19 09:28:10 51°28.856 2°40.133 -999 0.070638 0.377536 -1.050924
2005-10-19 09:29:10 51°28.733 2°40.368 -999 0.070535 0.377091 -1.050924
2005-10-19 09:30:10 51°28.783 2°40.65 -999 0.070535 0.377143 -1.050924
2005-10-19 09:31:10 51°28.886 2°40.896 -999 0.070535 0.377208 -1.050924
2005-10-19 09:32:10 51°28.993 2°41.14 -999 0.070535 0.377279 -1.050924
2005-10-19 09:33:10 51°29.095 2°41.381 -999 0.070432 0.376782 -1.050924
2005-10-19 09:34:10 51°29.202 2°41.622 -999 0.070432 0.376847 -1.050924
2005-10-19 09:35:10 51°29.334 2°41.837 -999 0.070432 0.376892 -1.050924
2005-10-19 09:36:10 51°29.469 2°42.044 -999 0.070432 0.376931 -1.050924
2005-10-19 09:37:10 51°29.6 2°42.251 -999 0.070432 0.37697 -1.050924
2005-10-19 09:38:10 51°29.729 2°42.463 -999 0.070432 0.376983 -1.050924
2005-10-19 09:39:10 51°29.855 2°42.688 -999 0.070432 0.377009 -1.050924
2005-10-19 09:40:10 51°29.93 2°42.966 -999 0.070432 0.377047 -1.050924
2005-10-19 09:41:10 51°29.993 2°43.254 -999 0.070432 0.377086 -1.050924
2005-10-19 09:42:10 51°30.057 2°43.541 -999 0.070432 0.377106 -1.050924
2005-10-19 09:43:10 51°30.123 2°43.83 -999 0.070432 0.377158 -1.050924
2005-10-19 09:44:10 51°30.191 2°44.115 -999 0.070432 0.377216 -1.050924
2005-10-19 09:45:10 51°30.257 2°44.407 -999 0.07033 0.376686 -1.050924
2005-10-19 09:46:10 51°30.325 2°44.695 -999 0.07033 0.376725 -1.050924
2005-10-19 09:47:10 51°30.393 2°44.978 -999 0.07033 0.376757 -1.050924
2005-10-19 09:48:10 51°30.46 2°45.267 -999 0.07033 0.376796 -1.050924
2005-10-19 09:49:10 51°30.53 2°45.546 -999 0.07033 0.376835 -1.050924
2005-10-19 09:50:10 51°30.599 2°45.826 -999 0.07033 0.3769 -1.050924
2005-10-19 09:51:10 51°30.678 2°46.103 -999 0.07033 0.376919 -1.050924
2005-10-19 09:52:10 51°30.753 2°46.385 -999 0.07033 0.376965 -1.050924
2005-10-19 09:53:10 51°30.83 2°46.662 -999 0.07033 0.376997 -1.050924
2005-10-19 09:54:10 51°30.904 2°46.945 -999 0.07033 0.37703 -1.050924
2005-10-19 09:55:10 51°30.988 2°47.218 -999 0.07033 0.377081 -1.050924
2005-10-19 09:56:10 51°31.077 2°47.483 -999 0.07033 0.377114 -1.050924
2005-10-19 09:57:10 51°31.165 2°47.752 -999 0.07033 0.377153 -1.084634
2005-10-19 09:58:10 51°31.249 2°48.021 -999 0.07033 0.377172 -1.050924
2005-10-19 09:59:10 51°31.337 2°48.288 -999 0.07033 0.377211 -1.050924
2005-10-19 10:00:10 51°31.425 2°48.554 -999 0.07033 0.377224 -1.084634
2005-10-19 10:01:10 51°31.515 2°48.821 -999 0.07033 0.377263 -1.050924
2005-10-19 10:02:10 51°31.603 2°49.087 -999 0.07033 0.377296 -1.084634
2005-10-19 10:03:10 51°31.69 2°49.359 -999 0.07033 0.377335 -1.084634
2005-10-19 10:04:10 51°31.78 2°49.623 -999 0.07033 0.377374 -1.084634
2005-10-19 10:05:10 51°31.866 2°49.888 -999 0.07033 0.377393 -1.084634
2005-10-19 10:06:10 51°31.956 2°50.152 -999 0.07033 0.377419 -1.084634
2005-10-19 10:07:10 51°32.042 2°50.42 -999 0.07033 0.377445 -1.084634
2005-10-19 10:08:10 51°32.128 2°50.689 -999 0.07033 0.377471 -1.084634
2005-10-19 10:09:10 51°32.216 2°50.958 -999 0.07033 0.37751 -1.084634
2005-10-19 10:10:10 51°32.303 2°51.232 -999 0.07033 0.377537 -1.084634
2005-10-19 10:11:10 51°32.393 2°51.507 -999 0.07033 0.37755 -1.084634
2005-10-19 10:12:10 51°32.482 2°51.784 -999 0.07033 0.377582 -1.084634
2005-10-19 10:13:10 51°32.57 2°52.057 -999 0.07033 0.377615 -1.084634
2005-10-19 10:14:10 51°32.658 2°52.329 -999 0.07033 0.377641 -1.084634
2005-10-19 10:15:10 51°32.748 2°52.599 -999 0.07033 0.377654 -1.084634
2005-10-19 10:16:10 51°32.837 2°52.878 -999 0.07033 0.377686 -1.084634
2005-10-19 10:17:10 51°32.928 2°53.151 -999 0.07033 0.377712 -1.084634
2005-10-19 10:18:10 51°33.018 2°53.421 -999 0.07033 0.377725 -1.084634
2005-10-19 10:19:10 51°33.11 2°53.694 -999 0.07033 0.377751 -1.084634
2005-10-19 10:20:10 51°33.201 2°53.966 -999 0.07033 0.377778 -1.084634
2005-10-19 10:21:10 51°33.29 2°54.245 -999 0.07033 0.377804 -1.084634
2005-10-19 10:22:10 51°33.385 2°54.526 -999 0.07033 0.37783 -1.084634
2005-10-19 10:23:10 51°33.477 2°54.797 -999 0.070432 0.378413 -1.084634
2005-10-19 10:24:10 51°33.568 2°55.075 -999 0.070432 0.378446 -1.084634
2005-10-19 10:25:10 51°33.662 2°55.354 -999 0.070432 0.378459 -1.084634
2005-10-19 10:26:10 51°33.755 2°55.623 -999 0.070432 0.378492 -1.084634
2005-10-19 10:27:10 51°33.848 2°55.905 -999 0.070432 0.378505 -1.118343
2005-10-19 10:28:10 51°33.936 2°56.183 -999 0.070432 0.378531 -1.084634
2005-10-19 10:29:10 51°34.03 2°56.451 -999 0.070432 0.378551 -1.118343
2005-10-19 10:30:10 51°34.122 2°56.726 -999 0.070432 0.37857 -1.118343
2005-10-19 10:31:10 51°34.211 2°57 -999 0.070432 0.37859 -1.118343
2005-10-19 10:32:10 51°34.306 2°57.272 -999 0.070432 0.37859 -1.084634
2005-10-19 10:33:10 51°34.396 2°57.543 -999 0.070432 0.378616 -1.084634
2005-10-19 10:34:10 51°34.486 2°57.823 -999 0.070432 0.378623 -1.118343
2005-10-19 10:35:10 51°34.578 2°58.094 -999 0.070432 0.378629 -1.118343
2005-10-19 10:36:10 51°34.668 2°58.369 -999 0.070432 0.378649 -1.118343
2005-10-19 10:37:10 51°34.753 2°58.65 -999 0.070432 0.378668 -1.118343
2005-10-19 10:38:10 51°34.841 2°58.925 -999 0.070432 0.378662 -1.118343
2005-10-19 10:39:10 51°34.922 2°59.205 -999 0.070432 0.378682 -1.118343
2005-10-19 10:40:10 51°35.009 2°59.477 -999 0.070433 0.378701 -1.118343
2005-10-19 10:41:10 51°35.1 2°59.748 -999 0.070433 0.378708 -1.084634
2005-10-19 10:42:10 51°35.184 3°0.024 -999 0.070433 0.378727 -1.118343
2005-10-19 10:43:10 51°35.198 3°0.333 -999 0.070433 0.37876 -1.118343
2005-10-19 10:44:10 51°35.103 3°0.626 -999 0.070433 0.378773 -1.118343
2005-10-19 10:45:10 51°34.949 3°0.873 -999 0.070433 0.378806 -1.118343
2005-10-19 10:46:10 51°34.752 3°1.035 -999 0.070433 0.378839 -1.118343
2005-10-19 10:47:10 51°34.541 3°0.935 -999 0.070433 0.378911 -1.118343
2005-10-19 10:48:10 51°34.41 3°0.64 -999 0.07033 0.378424 -1.118343
2005-10-19 10:49:10 51°34.29 3°0.33 -999 0.07033 0.37847 -1.118343
2005-10-19 10:50:10 51°34.176 3°0.013 -999 0.07033 0.378523 -1.118343
2005-10-19 10:51:10 51°34.061 2°59.697 -999 0.07033 0.378562 -1.118343
2005-10-19 10:52:10 51°33.949 2°59.379 -999 0.07033 0.378601 -1.084634
2005-10-19 10:53:10 51°33.836 2°59.065 -999 0.07033 0.378641 -1.118343
2005-10-19 10:54:10 51°33.725 2°58.749 -999 0.07033 0.37868 -1.118343
2005-10-19 10:55:10 51°33.614 2°58.434 -999 0.07033 0.378726 -1.118343
2005-10-19 10:56:10 51°33.503 2°58.119 -999 0.07033 0.378765 -1.118343
2005-10-19 10:57:10 51°33.391 2°57.804 -999 0.070227 0.378232 -1.118343
2005-10-19 10:58:10 51°33.274 2°57.494 -999 0.070227 0.378272 -1.118343
2005-10-19 10:59:10 51°33.156 2°57.185 -999 0.070227 0.378311 -1.118343
2005-10-19 11:00:10 51°33.035 2°56.878 -999 0.070227 0.37835 -1.118343
2005-10-19 11:01:10 51°32.915 2°56.571 -999 0.070227 0.378383 -1.118343
2005-10-19 11:02:10 51°32.794 2°56.263 -999 0.070227 0.378429 -1.084634
2005-10-19 11:03:10 51°32.673 2°55.956 -999 0.070227 0.378468 -1.118343
2005-10-19 11:04:10 51°32.546 2°55.655 -999 0.070227 0.378514 -1.084634
2005-10-19 11:05:10 51°32.42 2°55.357 -999 0.070227 0.378547 -1.084634
2005-10-19 11:06:10 51°32.293 2°55.06 -999 0.070227 0.378587 -1.118343
2005-10-19 11:07:10 51°32.168 2°54.764 -999 0.070227 0.378619 -1.118343
2005-10-19 11:08:10 51°32.044 2°54.466 -999 0.070227 0.378659 -1.118343
2005-10-19 11:09:10 51°31.92 2°54.172 -999 0.070227 0.378685 -1.118343
2005-10-19 11:10:10 51°31.799 2°53.878 -999 0.070227 0.378718 -1.118343
2005-10-19 11:11:10 51°31.676 2°53.584 -999 0.070227 0.378757 -1.118343
2005-10-19 11:12:10 51°31.555 2°53.289 -999 0.070227 0.378784 -1.118343
2005-10-19 11:13:10 51°31.432 2°52.998 -999 0.070124 0.378244 -1.118343
2005-10-19 11:14:10 51°31.311 2°52.706 -999 0.070124 0.378276 -1.118343
2005-10-19 11:15:10 51°31.189 2°52.415 -999 0.070124 0.378296 -1.118343
2005-10-19 11:16:10 51°31.068 2°52.125 -999 0.070124 0.378329 -1.118343
2005-10-19 11:17:10 51°30.946 2°51.836 -999 0.070124 0.378355 -1.118343
2005-10-19 11:18:10 51°30.825 2°51.549 -999 0.070124 0.378375 -1.118343
2005-10-19 11:19:10 51°30.704 2°51.261 -999 0.070124 0.378408 -1.118343
2005-10-19 11:20:10 51°30.582 2°50.972 -999 0.070124 0.378427 -1.118343
2005-10-19 11:21:10 51°30.459 2°50.685 -999 0.070124 0.378454 -1.118343
2005-10-19 11:22:10 51°30.339 2°50.397 -999 0.070124 0.378487 -1.118343
2005-10-19 11:23:10 51°30.219 2°50.108 -999 0.070124 0.378513 -1.118343
2005-10-19 11:24:10 51°30.1 2°49.82 -999 0.070124 0.378546 -1.118343
2005-10-19 11:25:10 51°29.98 2°49.536 -999 0.070124 0.378572 -1.118343
2005-10-19 11:26:10 51°29.864 2°49.249 -999 0.070124 0.378592 -1.118343
2005-10-19 11:27:10 51°29.748 2°48.963 -999 0.070124 0.378625 -1.118343
2005-10-19 11:28:10 51°29.632 2°48.676 -999 0.070124 0.378645 -1.118343
2005-10-19 11:29:10 51°29.517 2°48.392 -999 0.070124 0.378664 -1.118343
2005-10-19 11:30:10 51°29.402 2°48.109 -999 0.070124 0.378691 -1.118343
2005-10-19 11:31:10 51°29.289 2°47.828 -999 0.070124 0.37871 -1.118343
2005-10-19 11:32:10 51°29.176 2°47.548 -999 0.070124 0.37873 -1.118343
2005-10-19 11:33:10 51°29.065 2°47.267 -999 0.070124 0.378756 -1.118343
2005-10-19 11:34:10 51°28.954 2°46.989 -999 0.070124 0.378776 -1.118343
2005-10-19 11:35:10 51°28.843 2°46.713 -999 0.070124 0.378796 -1.118343
2005-10-19 11:36:10 51°28.731 2°46.44 -999 0.070124 0.378809 -1.118343
2005-10-19 11:37:10 51°28.611 2°46.176 -999 0.070124 0.378835 -1.118343
2005-10-19 11:38:10 51°28.458 2°45.96 -999 0.070124 0.378835 -1.118343
2005-10-19 11:39:10 51°28.302 2°45.748 -999 0.070124 0.378849 -1.118343
2005-10-19 11:40:10 51°28.147 2°45.539 -999 0.070124 0.378868 -1.118343
2005-10-19 11:41:10 51°27.994 2°45.33 -999 0.070124 0.378882 -1.118343
2005-10-19 11:42:10 51°27.842 2°45.118 -999 0.070021 0.378321 -1.118343
2005-10-19 11:43:10 51°27.691 2°44.906 -999 0.070021 0.378334 -1.118343
2005-10-19 11:44:10 51°27.539 2°44.696 -999 0.070021 0.378341 -1.118343
2005-10-19 11:45:10 51°27.387 2°44.487 -999 0.070021 0.378347 -1.118343
2005-10-19 11:46:10 51°27.238 2°44.276 -999 0.070021 0.378354 -1.118343
2005-10-19 11:47:10 51°27.091 2°44.058 -999 0.070021 0.378373 -1.118343
2005-10-19 11:48:10 51°26.943 2°43.848 -999 0.070021 0.378373 -1.118343
2005-10-19 11:49:10 51°26.789 2°43.642 -999 0.070021 0.378387 -1.118343
2005-10-19 11:50:10 51°26.635 2°43.441 -999 0.070021 0.3784 -1.118343
2005-10-19 11:51:10 51°26.462 2°43.284 -999 0.070021 0.378413 -1.118343
2005-10-19 11:52:10 51°26.271 2°43.178 -999 0.070021 0.378413 -1.118343
2005-10-19 11:53:10 51°26.081 2°43.074 -999 0.070021 0.378433 -1.118343
2005-10-19 11:54:10 51°25.889 2°42.979 -999 0.070021 0.378459 -1.118343
2005-10-19 11:55:10 51°25.692 2°42.913 -999 0.070021 0.378485 -1.118343
2005-10-19 11:56:10 51°25.488 2°42.898 -999 0.070021 0.378505 -1.152053
2005-10-19 11:57:10 51°25.283 2°42.887 -999 0.070021 0.378525 -1.118343
2005-10-19 11:58:10 51°25.079 2°42.875 -999 0.070021 0.378551 -1.152053
2005-10-19 11:59:10 51°24.874 2°42.891 -999 0.070021 0.378584 -1.152053
2005-10-19 12:00:10 51°24.669 2°42.912 -999 0.070021 0.378624 -1.118343
2005-10-19 12:01:10 51°24.462 2°42.943 -999 0.070021 0.378663 -1.152053
2005-10-19 12:02:10 51°24.26 2°42.979 -999 0.070021 0.378696 -1.118343
2005-10-19 12:03:10 51°24.058 2°42.96 -999 0.070021 0.378736 -1.118343
2005-10-19 12:04:10 51°23.854 2°42.947 -999 0.069918 0.378201 -1.152053
2005-10-19 12:05:10 51°23.651 2°42.937 -999 0.070021 0.378815 -1.118343
2005-10-19 12:06:10 51°23.454 2°42.897 -999 0.069918 0.378287 -1.118343
2005-10-19 12:07:10 51°23.259 2°42.856 -999 0.069918 0.378333 -1.118343
2005-10-19 12:08:10 51°23.061 2°42.865 -999 0.069918 0.378366 -1.118343
2005-10-19 12:09:10 51°22.864 2°42.916 -999 0.069918 0.378405 -1.152053
2005-10-19 12:10:10 51°22.667 2°42.975 -999 0.069918 0.378445 -1.118343
2005-10-19 12:11:10 51°22.47 2°43.033 -999 0.069918 0.378504 -1.118343
2005-10-19 12:12:10 51°22.271 2°43.095 -999 0.069918 0.378544 -1.152053
2005-10-19 12:13:10 51°22.071 2°43.158 -999 0.069918 0.37859 -1.118343
2005-10-19 12:14:10 51°21.874 2°43.229 -999 0.069918 0.378643 -1.118343
2005-10-19 12:15:10 51°21.687 2°43.384 -999 0.069918 0.378683 -1.118343
2005-10-19 12:16:10 51°21.501 2°43.547 -999 0.069815 0.378147 -1.118343
2005-10-19 12:17:10 51°21.315 2°43.711 -999 0.069815 0.3782 -1.118343
2005-10-19 12:18:10 51°21.127 2°43.871 -999 0.069815 0.378253 -1.118343
2005-10-19 12:19:10 51°20.94 2°44.032 -999 0.069815 0.378312 -1.118343
2005-10-19 12:20:10 51°20.753 2°44.193 -999 0.069815 0.378378 -1.118343
2005-10-19 12:21:10 51°20.577 2°44.384 -999 0.069815 0.378444 -1.118343
2005-10-19 12:22:10 51°20.409 2°44.58 -999 0.069815 0.378497 -1.118343
2005-10-19 12:23:10 51°20.241 2°44.778 -999 0.069815 0.378563 -1.118343
2005-10-19 12:24:10 51°20.073 2°44.975 -999 0.069712 0.378053 -1.118343
2005-10-19 12:25:10 51°19.91 2°45.19 -999 0.069712 0.378113 -1.118343
2005-10-19 12:26:10 51°19.746 2°45.407 -999 0.069712 0.378179 -1.118343
2005-10-19 12:27:10 51°19.579 2°45.632 -999 0.069712 0.378252 -1.118343
2005-10-19 12:28:10 51°19.406 2°45.851 -999 0.069712 0.378331 -1.118343
2005-10-19 12:29:10 51°19.234 2°46.069 -999 0.069712 0.378404 -1.118343
2005-10-19 12:30:10 51°19.064 2°46.283 -999 0.069609 0.377907 -1.118343
2005-10-19 12:31:10 51°18.899 2°46.507 -999 0.069609 0.377953 -1.118343
2005-10-19 12:32:10 51°18.739 2°46.736 -999 0.069609 0.378026 -1.118343
2005-10-19 12:33:10 51°18.576 2°46.962 -999 0.069609 0.378092 -1.118343
2005-10-19 12:34:10 51°18.413 2°47.186 -999 0.069609 0.378165 -1.118343
2005-10-19 12:35:10 51°18.25 2°47.41 -999 0.069609 0.378225 -1.118343
2005-10-19 12:36:10 51°18.087 2°47.636 -999 0.069507 0.377714 -1.118343
2005-10-19 12:37:10 51°17.924 2°47.859 -999 0.069507 0.37778 -1.118343
2005-10-19 12:38:10 51°17.76 2°48.084 -999 0.069507 0.377853 -1.118343
2005-10-19 12:39:10 51°17.598 2°48.317 -999 0.069507 0.377926 -1.118343
2005-10-19 12:40:10 51°17.444 2°48.563 -999 0.069507 0.378005 -1.118343
2005-10-19 12:41:10 51°17.292 2°48.814 -999 0.069404 0.377501 -1.118343
2005-10-19 12:42:10 51°17.138 2°49.061 -999 0.069404 0.37758 -1.118343
2005-10-19 12:43:10 51°16.987 2°49.308 -999 0.069404 0.377673 -1.118343
2005-10-19 12:44:10 51°16.838 2°49.542 -999 0.069404 0.377753 -1.118343
2005-10-19 12:45:10 51°16.737 2°49.698 -999 0.069404 0.377832 -1.118343
2005-10-19 12:46:10 51°16.653 2°49.79 -999 0.069301 0.377333 -1.118343
2005-10-19 12:47:10 51°16.551 2°49.863 -999 0.069301 0.37742 -1.118343
2005-10-19 12:48:10 51°16.406 2°50.093 -999 0.069301 0.377473 -1.118343
2005-10-19 12:49:10 51°16.261 2°50.351 -999 0.069301 0.377506 -1.118343
2005-10-19 12:50:10 51°16.117 2°50.619 -999 0.069301 0.377573 -1.118343
2005-10-19 12:51:10 51°15.976 2°50.888 -999 0.069301 0.377646 -1.118343
2005-10-19 12:52:10 51°15.835 2°51.162 -999 0.069301 0.377725 -1.118343
2005-10-19 12:53:10 51°15.695 2°51.437 -999 0.069198 0.377219 -1.118343
2005-10-19 12:54:10 51°15.555 2°51.712 -999 0.069198 0.377299 -1.118343
2005-10-19 12:55:10 51°15.415 2°51.986 -999 0.069198 0.377372 -1.118343
2005-10-19 12:56:10 51°15.276 2°52.257 -999 0.069198 0.377445 -1.118343
2005-10-19 12:57:10 51°15.141 2°52.534 -999 0.069198 0.377525 -1.118343
2005-10-19 12:58:10 51°15.018 2°52.826 -999 0.069095 0.377012 -1.118343
2005-10-19 12:59:10 51°14.908 2°53.136 -999 0.069095 0.377079 -1.118343
2005-10-19 13:00:10 51°14.797 2°53.443 -999 0.069095 0.377138 -1.118343
2005-10-19 13:01:10 51°14.704 2°53.765 -999 0.069095 0.377205 -1.118343
2005-10-19 13:02:10 51°14.63 2°54.112 -999 0.069095 0.377245 -1.152053
2005-10-19 13:03:10 51°14.551 2°54.434 -999 0.069095 0.377305 -1.118343
2005-10-19 13:04:10 51°14.482 2°54.567 -999 0.069095 0.377378 -1.118343
2005-10-19 13:05:10 51°14.455 2°54.567 -999 0.069095 0.377431 -1.118343
2005-10-19 13:06:10 51°14.448 2°54.556 -999 0.069095 0.377485 -1.118343
2005-10-19 13:07:10 51°14.454 2°54.54 -999 0.069095 0.377531 -1.118343
2005-10-19 13:08:10 51°14.469 2°54.508 -999 0.069095 0.377578 -1.118343
2005-10-19 13:09:10 51°14.553 2°54.512 -999 0.069095 0.377645 -1.118343
2005-10-19 13:10:10 51°14.581 2°54.684 -999 0.069095 0.377672 -1.118343
2005-10-19 13:11:10 51°14.474 2°54.874 -999 0.069095 0.377658 -1.118343
2005-10-19 13:12:10 51°14.347 2°55.122 -999 0.069095 0.377705 -1.152053
2005-10-19 13:13:10 51°14.21 2°55.33 -999 0.069095 0.377725 -1.152053
2005-10-19 13:14:10 51°14.092 2°55.434 -999 0.069095 0.377745 -1.152053
2005-10-19 13:15:10 51°13.989 2°55.51 -999 0.069095 0.377778 -1.118343
2005-10-19 13:16:10 51°13.881 2°55.592 -999 0.069095 0.377805 -1.152053
2005-10-19 13:17:10 51°13.768 2°55.693 -999 0.069095 0.377832 -1.152053
2005-10-19 13:18:10 51°13.692 2°55.829 -999 0.069095 0.377865 -1.118343
2005-10-19 13:19:10 51°13.647 2°55.938 -999 0.069198 0.378473 -1.152053
2005-10-19 13:20:10 51°13.617 2°56.025 -999 0.069198 0.378507 -1.118343
2005-10-19 13:21:10 51°13.605 2°56.085 -999 0.069198 0.378533 -1.152053
2005-10-19 13:22:10 51°13.603 2°56.099 -999 0.069198 0.378553 -1.152053